createdAt,value
2018-09-26T00:02:11.199Z,102212.00
2018-09-26T00:04:42.852Z,102214.00
2018-09-26T00:07:10.636Z,102223.00
2018-09-26T00:09:38.381Z,102216.00
2018-09-26T00:12:06.340Z,102212.00
2018-09-26T00:14:34.130Z,102212.00
2018-09-26T00:17:01.873Z,102209.00
2018-09-26T00:19:29.712Z,102206.00
2018-09-26T00:21:57.508Z,102209.00
2018-09-26T00:24:25.272Z,102211.00
2018-09-26T00:26:53.093Z,102217.00
2018-09-26T00:29:20.918Z,102214.00
2018-09-26T00:31:48.711Z,102216.00
2018-09-26T00:34:16.438Z,102209.00
2018-09-26T00:36:44.225Z,102209.00
2018-09-26T00:39:12.037Z,102215.00
2018-09-26T00:41:39.837Z,102215.00
2018-09-26T00:44:07.648Z,102206.00
2018-09-26T00:46:35.581Z,102203.00
2018-09-26T00:49:03.373Z,102205.00
2018-09-26T00:51:31.188Z,102213.00
2018-09-26T00:53:58.944Z,102200.00
2018-09-26T00:56:26.813Z,102206.00
2018-09-26T00:58:54.669Z,102210.00
2018-09-26T01:01:22.460Z,102209.00
2018-09-26T01:03:50.221Z,102214.00
2018-09-26T01:06:18.305Z,102216.00
2018-09-26T01:08:46.130Z,102219.00
2018-09-26T01:11:13.913Z,102214.00
2018-09-26T01:13:41.665Z,102206.00
2018-09-26T01:16:09.522Z,102194.00
2018-09-26T01:18:37.308Z,102210.00
2018-09-26T01:21:05.205Z,102218.00
2018-09-26T01:23:33.027Z,102214.00
2018-09-26T01:26:00.791Z,102221.00
2018-09-26T01:28:28.575Z,102224.00
2018-09-26T01:30:56.352Z,102230.00
2018-09-26T01:33:24.121Z,102228.00
2018-09-26T01:35:51.941Z,102227.00
2018-09-26T01:38:19.708Z,102231.00
2018-09-26T01:40:47.501Z,102227.00
2018-09-26T01:43:15.303Z,102224.00
2018-09-26T01:45:43.016Z,102216.00
2018-09-26T01:48:10.802Z,102211.00
2018-09-26T01:50:38.577Z,102198.00
2018-09-26T01:53:06.415Z,102199.00
2018-09-26T01:55:34.190Z,102193.00
2018-09-26T01:58:01.951Z,102182.00
2018-09-26T02:00:29.724Z,102188.00
2018-09-26T02:02:57.580Z,102180.00
2018-09-26T02:05:25.452Z,102174.00
2018-09-26T02:07:53.258Z,102167.00
2018-09-26T02:10:20.997Z,102164.00
2018-09-26T02:12:48.761Z,102162.00
2018-09-26T02:15:16.509Z,102157.00
2018-09-26T02:17:44.362Z,102155.00
2018-09-26T02:20:12.156Z,102149.00
2018-09-26T02:22:39.942Z,102149.00
2018-09-26T02:25:07.818Z,102130.00
2018-09-26T02:27:35.681Z,102130.00
2018-09-26T02:30:03.467Z,102121.00
2018-09-26T02:32:31.259Z,102120.00
2018-09-26T02:34:59.003Z,102128.00
2018-09-26T02:37:26.748Z,102122.00
2018-09-26T02:39:54.496Z,102112.00
2018-09-26T02:42:22.298Z,102122.00
2018-09-26T02:44:50.101Z,102130.00
2018-09-26T02:47:17.916Z,102122.00
2018-09-26T02:49:45.760Z,102131.00
2018-09-26T02:52:13.644Z,102131.00
2018-09-26T02:54:41.515Z,102128.00
2018-09-26T02:57:09.311Z,102122.00
2018-09-26T02:59:37.080Z,102132.00
2018-09-26T03:02:04.870Z,102137.00
2018-09-26T03:04:32.699Z,102129.00
2018-09-26T03:07:00.526Z,102116.00
2018-09-26T03:09:28.320Z,102113.00
2018-09-26T03:11:56.164Z,102117.00
2018-09-26T03:14:23.979Z,102113.00
2018-09-26T03:16:51.811Z,102106.00
2018-09-26T03:19:19.636Z,102118.00
2018-09-26T03:21:47.401Z,102110.00
2018-09-26T03:24:15.157Z,102111.00
2018-09-26T03:26:42.939Z,102109.00
2018-09-26T03:29:10.823Z,102105.00
2018-09-26T03:31:38.589Z,102093.00
2018-09-26T03:34:06.626Z,102098.00
2018-09-26T03:36:34.372Z,102103.00
2018-09-26T03:39:02.214Z,102088.00
2018-09-26T03:41:30.021Z,102090.00
2018-09-26T03:43:57.804Z,102086.00
2018-09-26T03:46:25.628Z,102086.00
2018-09-26T03:48:53.416Z,102091.00
2018-09-26T03:51:21.266Z,102083.00
2018-09-26T03:53:49.064Z,102086.00
2018-09-26T03:56:16.925Z,102081.00
2018-09-26T03:58:44.770Z,102077.00
2018-09-26T04:01:12.638Z,102081.00
2018-09-26T04:03:40.468Z,102084.00
2018-09-26T04:06:08.310Z,102083.00
2018-09-26T04:08:36.095Z,102086.00
2018-09-26T04:11:03.885Z,102078.00
2018-09-26T04:13:31.734Z,102079.00
2018-09-26T04:15:59.566Z,102075.00
2018-09-26T04:18:27.408Z,102066.00
2018-09-26T04:20:55.573Z,102062.00
2018-09-26T04:23:23.333Z,102069.00
2018-09-26T04:25:51.100Z,102093.00
2018-09-26T04:28:18.911Z,102094.00
2018-09-26T04:30:46.810Z,102095.00
2018-09-26T04:33:15.023Z,102090.00
2018-09-26T04:35:42.589Z,102098.00
2018-09-26T04:38:10.514Z,102094.00
2018-09-26T04:40:38.687Z,102090.00
2018-09-26T04:43:06.573Z,102090.00
2018-09-26T04:45:34.412Z,102088.00
2018-09-26T04:48:02.242Z,102082.00
2018-09-26T04:50:29.994Z,102080.00
2018-09-26T04:52:57.834Z,102083.00
2018-09-26T04:55:25.685Z,102076.00
2018-09-26T04:57:53.647Z,102087.00
2018-09-26T05:00:21.425Z,102088.00
2018-09-26T05:02:49.251Z,102090.00
2018-09-26T05:05:17.152Z,102084.00
2018-09-26T05:07:45.001Z,102075.00
2018-09-26T05:10:12.801Z,102072.00
2018-09-26T05:12:40.635Z,102062.00
2018-09-26T05:15:08.472Z,102059.00
2018-09-26T05:17:36.345Z,102062.00
2018-09-26T05:20:04.274Z,102053.00
2018-09-26T05:22:32.091Z,102050.00
2018-09-26T05:24:59.944Z,102044.00
2018-09-26T05:27:27.730Z,102039.00
2018-09-26T05:29:55.525Z,102058.00
2018-09-26T05:32:23.247Z,102060.00
2018-09-26T05:34:51.139Z,102064.00
2018-09-26T05:37:19.023Z,102068.00
2018-09-26T05:39:47.051Z,102075.00
2018-09-26T05:42:14.796Z,102069.00
2018-09-26T05:44:42.627Z,102062.00
2018-09-26T05:47:10.405Z,102074.00
2018-09-26T05:49:38.173Z,102071.00
2018-09-26T05:52:06.028Z,102076.00
2018-09-26T05:54:33.800Z,102073.00
2018-09-26T05:57:01.656Z,102073.00
2018-09-26T05:59:29.557Z,102078.00
2018-09-26T06:01:57.332Z,102081.00
2018-09-26T06:04:25.055Z,102069.00
2018-09-26T06:06:52.786Z,102072.00
2018-09-26T06:09:20.643Z,102061.00
2018-09-26T06:11:48.389Z,102068.00
2018-09-26T06:14:16.130Z,102060.00
2018-09-26T06:16:43.942Z,102057.00
2018-09-26T06:19:11.704Z,102058.00
2018-09-26T06:21:39.631Z,102053.00
2018-09-26T06:24:07.949Z,102043.00
2018-09-26T06:26:35.721Z,102042.00
2018-09-26T06:29:03.486Z,102035.00
2018-09-26T06:31:31.360Z,102036.00
2018-09-26T06:33:59.151Z,102027.00
2018-09-26T06:36:26.938Z,102031.00
2018-09-26T06:38:54.821Z,102023.00
2018-09-26T06:41:22.680Z,102023.00
2018-09-26T06:43:50.532Z,102011.00
2018-09-26T06:46:18.457Z,102027.00
2018-09-26T06:48:46.238Z,102028.00
2018-09-26T06:51:14.078Z,102029.00
2018-09-26T06:53:41.892Z,102032.00
2018-09-26T06:56:09.745Z,102039.00
2018-09-26T06:58:37.521Z,102037.00
2018-09-26T07:01:05.622Z,102048.00
2018-09-26T07:03:33.478Z,102042.00
2018-09-26T07:06:01.362Z,102043.00
2018-09-26T07:08:29.177Z,102037.00
2018-09-26T07:10:57.038Z,102034.00
2018-09-26T07:13:24.853Z,102029.00
2018-09-26T07:15:52.647Z,102034.00
2018-09-26T07:18:20.369Z,102041.00
2018-09-26T07:20:48.196Z,102039.00
2018-09-26T07:23:15.977Z,102039.00
2018-09-26T07:25:43.761Z,102044.00
2018-09-26T07:28:11.553Z,102035.00
2018-09-26T07:30:39.381Z,102046.00
2018-09-26T07:33:07.132Z,102048.00
2018-09-26T07:35:34.949Z,102050.00
2018-09-26T07:38:02.893Z,102058.00
2018-09-26T07:40:30.656Z,102053.00
2018-09-26T07:42:58.407Z,102063.00
2018-09-26T07:45:26.286Z,102076.00
2018-09-26T07:47:53.944Z,102068.00
2018-09-26T07:50:21.735Z,102066.00
2018-09-26T07:52:49.540Z,102072.00
2018-09-26T07:55:17.361Z,102077.00
2018-09-26T07:57:45.290Z,102060.00
2018-09-26T08:00:13.067Z,102063.00
2018-09-26T08:02:40.819Z,102075.00
2018-09-26T08:05:08.680Z,102071.00
2018-09-26T08:07:36.451Z,102077.00
2018-09-26T08:10:04.211Z,102065.00
2018-09-26T08:12:32.116Z,102071.00
2018-09-26T08:14:59.960Z,102065.00
2018-09-26T08:17:27.722Z,102066.00
2018-09-26T08:19:55.533Z,102051.00
2018-09-26T08:22:23.342Z,102050.00
2018-09-26T08:24:51.158Z,102036.00
2018-09-26T08:27:18.939Z,102048.00
2018-09-26T08:29:46.717Z,102051.00
2018-09-26T08:32:14.579Z,102054.00
2018-09-26T08:34:42.457Z,102043.00
2018-09-26T08:37:10.269Z,102038.00
2018-09-26T08:39:38.036Z,102043.00
2018-09-26T08:42:05.875Z,102035.00
2018-09-26T08:44:33.752Z,102023.00
2018-09-26T08:47:01.563Z,102028.00
2018-09-26T08:49:29.388Z,102013.00
2018-09-26T08:51:57.172Z,102012.00
2018-09-26T08:54:24.984Z,102004.00
2018-09-26T08:56:52.820Z,102005.00
2018-09-26T08:59:20.569Z,102009.00
2018-09-26T09:01:48.670Z,101997.00
2018-09-26T09:04:17.557Z,102005.00
2018-09-26T09:06:45.880Z,101999.00
2018-09-26T09:09:13.700Z,101994.00
2018-09-26T09:11:41.630Z,101992.00
2018-09-26T09:14:09.454Z,101996.00
2018-09-26T09:16:37.337Z,101997.00
2018-09-26T09:19:05.268Z,101997.00
2018-09-26T09:21:33.112Z,102001.00
2018-09-26T09:24:00.977Z,102002.00
2018-09-26T09:26:28.954Z,102008.00
2018-09-26T09:29:26.628Z,102008.00
2018-09-26T09:31:54.668Z,102003.00
2018-09-26T09:34:22.459Z,102006.00
2018-09-26T09:36:50.387Z,102011.00
2018-09-26T09:39:18.179Z,102020.00
2018-09-26T09:41:46.084Z,102018.00
2018-09-26T09:44:14.001Z,102016.00
2018-09-26T09:46:41.796Z,102017.00
2018-09-26T09:49:09.678Z,102011.00
2018-09-26T09:51:37.566Z,102011.00
2018-09-26T09:54:05.565Z,102003.00
2018-09-26T09:56:33.415Z,101996.00
2018-09-26T09:59:01.274Z,101994.00
2018-09-26T10:01:29.333Z,101986.00
2018-09-26T10:03:58.673Z,101984.00
2018-09-26T10:06:26.995Z,101972.00
2018-09-26T10:08:55.136Z,101968.00
2018-09-26T10:11:23.026Z,101967.00
2018-09-26T10:13:50.904Z,101952.00
2018-09-26T10:16:18.878Z,101957.00
2018-09-26T10:18:46.820Z,101953.00
2018-09-26T10:21:14.729Z,101944.00
2018-09-26T10:23:42.548Z,101939.00
2018-09-26T10:26:10.704Z,101933.00
2018-09-26T10:28:38.706Z,101941.00
2018-09-26T10:31:06.633Z,101933.00
2018-09-26T10:33:34.501Z,101930.00
2018-09-26T10:36:02.418Z,101926.00
2018-09-26T10:38:30.202Z,101918.00
2018-09-26T10:40:58.074Z,101920.00
2018-09-26T10:43:25.893Z,101921.00
2018-09-26T10:45:53.757Z,101924.00
2018-09-26T10:48:21.641Z,101917.00
2018-09-26T10:50:49.527Z,101919.00
2018-09-26T10:53:17.417Z,101915.00
2018-09-26T10:55:44.993Z,101905.00
2018-09-26T10:58:12.524Z,101904.00
2018-09-26T11:00:40.084Z,101886.00
2018-09-26T11:03:07.653Z,101891.00
2018-09-26T11:05:35.216Z,101879.00
2018-09-26T11:08:02.763Z,101879.00
2018-09-26T11:10:30.312Z,101873.00
2018-09-26T11:12:57.867Z,101865.00
2018-09-26T11:15:25.450Z,101871.00
2018-09-26T11:17:53.019Z,101869.00
2018-09-26T11:20:20.640Z,101858.00
2018-09-26T11:22:48.172Z,101862.00
2018-09-26T11:25:15.704Z,101858.00
2018-09-26T11:27:43.258Z,101857.00
2018-09-26T11:30:10.811Z,101856.00
2018-09-26T11:32:38.360Z,101855.00
2018-09-26T11:35:06.108Z,101854.00
2018-09-26T11:37:33.675Z,101847.00
2018-09-26T11:40:01.240Z,101839.00
2018-09-26T11:42:28.995Z,101849.00
2018-09-26T11:44:56.512Z,101840.00
2018-09-26T11:47:24.032Z,101840.00
2018-09-26T11:49:51.584Z,101823.00
2018-09-26T11:52:19.169Z,101828.00
2018-09-26T11:54:46.648Z,101823.00
2018-09-26T11:57:14.174Z,101825.00
2018-09-26T11:59:41.694Z,101828.00
2018-09-26T12:02:09.321Z,101821.00
2018-09-26T12:04:36.789Z,101819.00
2018-09-26T12:07:04.343Z,101823.00
2018-09-26T12:09:32.044Z,101818.00
2018-09-26T12:11:59.591Z,101816.00
2018-09-26T12:14:27.116Z,101804.00
2018-09-26T12:16:54.656Z,101803.00
2018-09-26T12:19:22.219Z,101797.00
2018-09-26T12:21:49.836Z,101794.00
2018-09-26T12:24:17.353Z,101794.00
2018-09-26T12:26:44.801Z,101790.00
2018-09-26T12:29:12.340Z,101793.00
2018-09-26T12:31:39.890Z,101788.00
2018-09-26T12:34:07.462Z,101774.00
2018-09-26T12:36:34.976Z,101777.00
2018-09-26T12:39:03.399Z,101771.00
2018-09-26T12:41:30.934Z,101762.00
2018-09-26T12:43:58.456Z,101755.00
2018-09-26T12:46:26.073Z,101752.00
2018-09-26T12:48:53.601Z,101753.00
2018-09-26T12:51:21.181Z,101754.00
2018-09-26T12:53:55.646Z,101753.00
2018-09-26T12:56:23.123Z,101743.00
2018-09-26T12:58:50.673Z,101743.00
2018-09-26T13:01:18.211Z,101729.00
2018-09-26T13:03:45.741Z,101737.00
2018-09-26T13:06:13.339Z,101737.00
2018-09-26T13:08:40.844Z,101729.00
2018-09-26T13:11:08.410Z,101730.00
2018-09-26T13:13:35.948Z,101722.00
2018-09-26T13:16:03.493Z,101723.00
2018-09-26T13:18:31.053Z,101717.00
2018-09-26T13:20:58.598Z,101723.00
2018-09-26T13:23:26.135Z,101724.00
2018-09-26T13:25:53.692Z,101722.00
2018-09-26T13:28:21.312Z,101711.00
2018-09-26T13:30:48.814Z,101716.00
2018-09-26T13:33:16.353Z,101710.00
2018-09-26T13:35:43.875Z,101703.00
2018-09-26T13:38:11.465Z,101707.00
2018-09-26T13:40:38.956Z,101705.00
2018-09-26T13:43:06.704Z,101699.00
2018-09-26T13:45:34.287Z,101685.00
2018-09-26T13:48:01.782Z,101678.00
2018-09-26T13:50:29.336Z,101678.00
2018-09-26T13:52:56.921Z,101667.00
2018-09-26T13:55:24.468Z,101667.00
2018-09-26T13:57:52.016Z,101662.00
2018-09-26T14:00:19.597Z,101665.00
2018-09-26T14:02:47.488Z,101664.00
2018-09-26T14:05:15.085Z,101667.00
2018-09-26T14:07:42.637Z,101665.00
2018-09-26T14:10:10.181Z,101662.00
2018-09-26T14:12:37.723Z,101666.00
2018-09-26T14:15:05.534Z,101654.00
2018-09-26T14:17:33.064Z,101652.00
2018-09-26T14:20:24.119Z,101647.00
2018-09-26T14:22:52.082Z,101644.00
2018-09-26T14:25:19.898Z,101630.00
2018-09-26T14:27:47.928Z,101632.00
2018-09-26T14:30:15.881Z,101623.00
2018-09-26T14:32:43.751Z,101623.00
2018-09-26T14:35:11.661Z,101618.00
2018-09-26T14:37:39.589Z,101607.00
2018-09-26T14:40:08.576Z,101602.00
2018-09-26T14:42:36.549Z,101597.00
2018-09-26T14:45:04.646Z,101598.00
2018-09-26T14:47:32.823Z,101590.00
2018-09-26T14:50:00.789Z,101594.00
2018-09-26T14:52:28.751Z,101597.00
2018-09-26T14:54:56.713Z,101595.00
2018-09-26T14:57:24.761Z,101588.00
2018-09-26T14:59:52.659Z,101594.00
2018-09-26T15:02:20.673Z,101586.00
2018-09-26T15:04:48.595Z,101579.00
2018-09-26T15:07:16.563Z,101570.00
2018-09-26T15:09:44.515Z,101569.00
2018-09-26T15:12:12.497Z,101582.00
2018-09-26T15:14:40.453Z,101577.00
2018-09-26T15:17:08.419Z,101580.00
2018-09-26T15:19:36.456Z,101580.00
2018-09-26T15:22:04.458Z,101582.00
2018-09-26T15:24:32.425Z,101582.00
2018-09-26T15:27:00.405Z,101570.00
2018-09-26T15:29:28.375Z,101573.00
2018-09-26T15:31:56.331Z,101577.00
2018-09-26T15:34:24.332Z,101584.00
2018-09-26T15:36:52.263Z,101572.00
2018-09-26T15:39:20.241Z,101573.00
2018-09-26T15:41:48.152Z,101576.00
2018-09-26T15:44:16.097Z,101570.00
2018-09-26T15:46:43.975Z,101567.00
2018-09-26T15:49:11.892Z,101556.00
2018-09-26T15:51:39.793Z,101558.00
2018-09-26T15:54:08.219Z,101562.00
2018-09-26T15:56:36.100Z,101570.00
2018-09-26T15:59:04.043Z,101560.00
2018-09-26T16:01:31.947Z,101559.00
2018-09-26T16:04:22.179Z,101567.00
2018-09-26T16:06:49.636Z,101562.00
2018-09-26T16:09:17.229Z,101560.00
2018-09-26T16:11:44.813Z,101548.00
2018-09-26T16:14:12.533Z,101555.00
2018-09-26T16:16:40.036Z,101557.00
2018-09-26T16:19:07.624Z,101552.00
2018-09-26T16:21:35.135Z,101552.00
2018-09-26T16:24:02.684Z,101567.00
2018-09-26T16:26:30.227Z,101567.00
2018-09-26T16:28:57.783Z,101559.00
2018-09-26T16:31:25.351Z,101557.00
2018-09-26T16:33:53.156Z,101557.00
2018-09-26T16:36:20.757Z,101545.00
2018-09-26T16:38:48.272Z,101549.00
2018-09-26T16:41:15.815Z,101551.00
2018-09-26T16:43:43.337Z,101548.00
2018-09-26T16:46:10.863Z,101542.00
2018-09-26T16:48:38.417Z,101537.00
2018-09-26T16:51:06.133Z,101551.00
2018-09-26T16:53:33.696Z,101544.00
2018-09-26T16:56:01.216Z,101532.00
2018-09-26T16:58:28.747Z,101525.00
2018-09-26T17:00:56.303Z,101522.00
2018-09-26T17:03:23.827Z,101519.00
2018-09-26T17:05:51.331Z,101525.00
2018-09-26T17:08:18.977Z,101527.00
2018-09-26T17:10:46.845Z,101533.00
2018-09-26T17:13:14.564Z,101520.00
2018-09-26T17:15:42.603Z,101525.00
2018-09-26T17:18:10.179Z,101524.00
2018-09-26T17:20:37.676Z,101522.00
2018-09-26T17:23:05.213Z,101534.00
2018-09-26T17:25:32.745Z,101534.00
2018-09-26T17:28:00.265Z,101529.00
2018-09-26T17:30:27.797Z,101522.00
2018-09-26T17:32:55.307Z,101527.00
2018-09-26T17:35:49.848Z,101525.00
2018-09-26T17:38:17.363Z,101522.00
2018-09-26T17:40:44.917Z,101532.00
2018-09-26T17:43:12.514Z,101530.00
2018-09-26T17:45:40.159Z,101538.00
2018-09-26T17:48:07.641Z,101536.00
2018-09-26T17:50:35.364Z,101525.00
2018-09-26T17:53:02.915Z,101526.00
2018-09-26T17:55:30.467Z,101526.00
2018-09-26T17:57:58.336Z,101527.00
2018-09-26T18:00:25.988Z,101527.00
2018-09-26T18:02:53.437Z,101539.00
2018-09-26T18:05:21.024Z,101528.00
2018-09-26T18:07:48.551Z,101534.00
2018-09-26T18:10:43.648Z,101542.00
2018-09-26T18:13:11.221Z,101526.00
2018-09-26T18:15:38.778Z,101529.00
2018-09-26T18:18:06.475Z,101536.00
2018-09-26T18:20:34.247Z,101530.00
2018-09-26T18:23:01.781Z,101522.00
2018-09-26T18:25:29.339Z,101521.00
2018-09-26T18:27:56.935Z,101515.00
2018-09-26T18:30:24.476Z,101522.00
2018-09-26T18:32:52.008Z,101524.00
2018-09-26T18:35:37.815Z,101529.00
2018-09-26T18:38:05.351Z,101520.00
2018-09-26T18:40:32.948Z,101522.00
2018-09-26T18:43:00.504Z,101523.00
2018-09-26T18:45:28.072Z,101517.00
2018-09-26T18:47:55.594Z,101526.00
2018-09-26T18:50:23.141Z,101518.00
2018-09-26T18:52:50.681Z,101518.00
2018-09-26T18:55:18.215Z,101519.00
2018-09-26T18:57:45.746Z,101523.00
2018-09-26T19:00:13.276Z,101518.00
2018-09-26T19:02:40.804Z,101510.00
2018-09-26T19:05:08.423Z,101513.00
2018-09-26T19:07:35.927Z,101511.00
2018-09-26T19:10:04.108Z,101510.00
2018-09-26T19:12:31.703Z,101509.00
2018-09-26T19:14:59.215Z,101515.00
2018-09-26T19:17:26.747Z,101509.00
2018-09-26T19:19:54.282Z,101513.00
2018-09-26T19:22:21.817Z,101517.00
2018-09-26T19:24:49.339Z,101517.00
2018-09-26T19:27:16.889Z,101511.00
2018-09-26T19:29:44.428Z,101513.00
2018-09-26T19:32:11.972Z,101518.00
2018-09-26T19:34:39.538Z,101519.00
2018-09-26T19:37:07.086Z,101522.00
2018-09-26T19:39:34.639Z,101523.00
2018-09-26T19:42:02.162Z,101529.00
2018-09-26T19:44:29.684Z,101523.00
2018-09-26T19:46:57.210Z,101529.00
2018-09-26T19:49:24.907Z,101524.00
2018-09-26T19:51:52.436Z,101531.00
2018-09-26T19:54:19.952Z,101533.00
2018-09-26T19:56:57.849Z,101530.00
2018-09-26T19:59:25.362Z,101547.00
2018-09-26T20:01:52.894Z,101546.00
2018-09-26T20:04:30.843Z,101549.00
2018-09-26T20:06:58.396Z,101540.00
2018-09-26T20:12:29.430Z,101534.00
2018-09-26T20:14:57.052Z,101536.00
2018-09-26T20:17:24.569Z,101533.00
2018-09-26T20:19:52.103Z,101535.00
2018-09-26T20:22:34.048Z,101535.00
2018-09-26T20:25:01.780Z,101527.00
2018-09-26T20:27:29.321Z,101545.00
2018-09-26T20:29:56.859Z,101541.00
2018-09-26T20:32:24.377Z,101539.00
2018-09-26T20:34:52.089Z,101526.00
2018-09-26T20:37:19.624Z,101542.00
2018-09-26T20:39:47.393Z,101538.00
2018-09-26T20:42:16.188Z,101546.00
2018-09-26T20:44:43.703Z,101552.00
2018-09-26T20:47:11.409Z,101535.00
2018-09-26T20:49:38.936Z,101550.00
2018-09-26T20:52:06.614Z,101544.00
2018-09-26T20:54:34.136Z,101550.00
2018-09-26T20:57:01.655Z,101541.00
2018-09-26T20:59:29.223Z,101541.00
2018-09-26T21:01:56.746Z,101540.00
2018-09-26T21:04:29.877Z,101545.00
2018-09-26T21:06:57.422Z,101541.00
2018-09-26T21:09:36.743Z,101542.00
2018-09-26T21:12:18.327Z,101539.00
2018-09-26T21:14:45.880Z,101538.00
2018-09-26T21:17:23.281Z,101551.00
2018-09-26T21:19:51.832Z,101548.00
2018-09-26T21:22:32.427Z,101555.00
2018-09-26T21:25:00.100Z,101562.00
2018-09-26T21:27:27.622Z,101560.00
2018-09-26T21:29:55.143Z,101556.00
2018-09-26T21:32:22.669Z,101543.00
2018-09-26T21:34:50.208Z,101551.00
2018-09-26T21:37:17.736Z,101564.00
2018-09-26T21:39:45.264Z,101556.00
2018-09-26T21:42:12.802Z,101556.00
2018-09-26T21:44:40.345Z,101558.00
2018-09-26T21:47:07.883Z,101558.00
2018-09-26T21:49:35.415Z,101557.00
2018-09-26T21:52:02.980Z,101561.00
2018-09-26T21:54:30.603Z,101562.00
2018-09-26T21:57:05.345Z,101557.00
2018-09-26T21:59:32.889Z,101555.00
2018-09-26T22:02:00.443Z,101552.00
2018-09-26T22:04:28.013Z,101563.00
2018-09-26T22:06:55.555Z,101555.00
2018-09-26T22:09:23.088Z,101553.00
2018-09-26T22:11:50.644Z,101557.00
2018-09-26T22:14:18.176Z,101554.00
2018-09-26T22:16:45.733Z,101549.00
2018-09-26T22:19:13.280Z,101541.00
2018-09-26T22:21:40.819Z,101549.00
2018-09-26T22:24:08.343Z,101545.00
2018-09-26T22:26:35.875Z,101556.00
2018-09-26T22:29:03.411Z,101551.00
2018-09-26T22:31:30.952Z,101544.00
2018-09-26T22:33:58.505Z,101551.00
2018-09-26T22:36:26.060Z,101554.00
2018-09-26T22:38:54.443Z,101551.00
2018-09-26T22:41:21.978Z,101549.00
2018-09-26T22:43:49.511Z,101559.00
2018-09-26T22:46:17.060Z,101550.00
2018-09-26T22:48:44.605Z,101551.00
2018-09-26T22:51:12.139Z,101542.00
2018-09-26T22:53:39.670Z,101557.00
2018-09-26T22:56:07.220Z,101557.00
2018-09-26T22:58:34.756Z,101549.00
2018-09-26T23:01:02.521Z,101547.00
2018-09-26T23:03:30.058Z,101541.00
2018-09-26T23:05:57.610Z,101537.00
2018-09-26T23:08:25.144Z,101535.00
2018-09-26T23:10:52.682Z,101528.00
2018-09-26T23:13:20.211Z,101536.00
2018-09-26T23:15:47.747Z,101532.00
2018-09-26T23:18:15.301Z,101532.00
2018-09-26T23:20:42.860Z,101525.00
2018-09-26T23:23:10.412Z,101537.00
2018-09-26T23:25:37.944Z,101530.00
2018-09-26T23:28:05.495Z,101537.00
2018-09-26T23:30:33.027Z,101529.00
2018-09-26T23:33:00.551Z,101542.00
2018-09-26T23:35:28.079Z,101531.00
2018-09-26T23:37:55.619Z,101532.00
2018-09-26T23:40:23.150Z,101528.00
2018-09-26T23:42:50.701Z,101535.00
2018-09-26T23:45:18.241Z,101531.00
2018-09-26T23:47:45.800Z,101527.00
2018-09-26T23:50:13.342Z,101530.00
2018-09-26T23:52:40.891Z,101526.00
2018-09-26T23:55:08.424Z,101523.00
2018-09-26T23:57:35.947Z,101518.00
